sensor_id;sensor_type;location;lat;lon;timestamp;P1;durP1;ratioP1;P2;durP2;ratioP2
76228;SDS011;65021;53.174;18.160;2023-02-22T00:01:15;14.40;;;1.90;;
76228;SDS011;65021;53.174;18.160;2023-02-22T00:04:02;9.20;;;1.90;;
76228;SDS011;65021;53.174;18.160;2023-02-22T00:06:30;11.80;;;2.10;;
76228;SDS011;65021;53.174;18.160;2023-02-22T00:08:57;10.80;;;2.60;;
76228;SDS011;65021;53.174;18.160;2023-02-22T00:11:24;5.70;;;1.80;;
76228;SDS011;65021;53.174;18.160;2023-02-22T00:13:51;10.00;;;2.30;;
76228;SDS011;65021;53.174;18.160;2023-02-22T00:16:19;3.50;;;0.90;;
76228;SDS011;65021;53.174;18.160;2023-02-22T00:18:47;6.60;;;1.40;;
76228;SDS011;65021;53.174;18.160;2023-02-22T00:21:14;6.00;;;1.60;;
76228;SDS011;65021;53.174;18.160;2023-02-22T00:23:42;7.10;;;2.20;;
76228;SDS011;65021;53.174;18.160;2023-02-22T00:26:14;6.90;;;1.70;;
76228;SDS011;65021;53.174;18.160;2023-02-22T00:28:47;5.40;;;1.40;;
76228;SDS011;65021;53.174;18.160;2023-02-22T00:31:15;7.00;;;1.90;;
76228;SDS011;65021;53.174;18.160;2023-02-22T00:33:43;8.10;;;1.30;;
76228;SDS011;65021;53.174;18.160;2023-02-22T00:36:10;6.70;;;1.30;;
76228;SDS011;65021;53.174;18.160;2023-02-22T00:38:39;3.00;;;0.90;;
76228;SDS011;65021;53.174;18.160;2023-02-22T00:41:06;8.40;;;1.90;;
76228;SDS011;65021;53.174;18.160;2023-02-22T00:43:33;5.10;;;1.40;;
76228;SDS011;65021;53.174;18.160;2023-02-22T00:46:00;4.60;;;1.20;;
76228;SDS011;65021;53.174;18.160;2023-02-22T00:48:27;6.90;;;1.90;;
76228;SDS011;65021;53.174;18.160;2023-02-22T00:50:54;3.60;;;1.20;;
76228;SDS011;65021;53.174;18.160;2023-02-22T00:53:21;4.30;;;0.90;;
76228;SDS011;65021;53.174;18.160;2023-02-22T00:55:49;6.80;;;1.40;;
76228;SDS011;65021;53.174;18.160;2023-02-22T00:58:16;4.80;;;0.90;;
76228;SDS011;65021;53.174;18.160;2023-02-22T01:00:43;6.20;;;1.10;;
76228;SDS011;65021;53.174;18.160;2023-02-22T01:03:11;4.10;;;0.80;;
76228;SDS011;65021;53.174;18.160;2023-02-22T01:05:40;6.80;;;1.40;;
76228;SDS011;65021;53.174;18.160;2023-02-22T01:08:08;4.20;;;1.10;;
76228;SDS011;65021;53.174;18.160;2023-02-22T01:10:35;4.50;;;1.60;;
76228;SDS011;65021;53.174;18.160;2023-02-22T01:13:03;7.30;;;1.30;;
76228;SDS011;65021;53.174;18.160;2023-02-22T01:15:34;10.80;;;2.10;;
76228;SDS011;65021;53.174;18.160;2023-02-22T01:18:01;7.20;;;1.70;;
76228;SDS011;65021;53.174;18.160;2023-02-22T01:20:30;6.80;;;1.40;;
76228;SDS011;65021;53.174;18.160;2023-02-22T01:22:57;6.30;;;1.10;;
76228;SDS011;65021;53.174;18.160;2023-02-22T01:25:26;5.70;;;1.40;;
76228;SDS011;65021;53.174;18.160;2023-02-22T01:27:54;6.40;;;1.50;;
76228;SDS011;65021;53.174;18.160;2023-02-22T01:30:23;4.90;;;1.70;;
76228;SDS011;65021;53.174;18.160;2023-02-22T01:32:53;6.90;;;1.60;;
76228;SDS011;65021;53.174;18.160;2023-02-22T01:35:21;5.40;;;1.10;;
76228;SDS011;65021;53.174;18.160;2023-02-22T01:37:50;6.10;;;1.70;;
76228;SDS011;65021;53.174;18.160;2023-02-22T01:40:21;9.50;;;2.20;;
76228;SDS011;65021;53.174;18.160;2023-02-22T01:42:54;10.50;;;1.90;;
76228;SDS011;65021;53.174;18.160;2023-02-22T01:45:36;5.70;;;1.80;;
76228;SDS011;65021;53.174;18.160;2023-02-22T01:48:21;8.50;;;2.10;;
76228;SDS011;65021;53.174;18.160;2023-02-22T01:51:11;1.90;;;0.50;;
76228;SDS011;65021;53.174;18.160;2023-02-22T01:56:14;5.40;;;1.70;;
76228;SDS011;65021;53.174;18.160;2023-02-22T01:58:44;9.70;;;2.00;;
76228;SDS011;65021;53.174;18.160;2023-02-22T02:01:13;12.40;;;1.90;;
76228;SDS011;65021;53.174;18.160;2023-02-22T02:03:41;5.40;;;1.30;;
76228;SDS011;65021;53.174;18.160;2023-02-22T02:06:11;6.10;;;1.60;;
76228;SDS011;65021;53.174;18.160;2023-02-22T02:11:26;6.90;;;1.80;;
76228;SDS011;65021;53.174;18.160;2023-02-22T02:13:54;2.90;;;1.00;;
76228;SDS011;65021;53.174;18.160;2023-02-22T02:16:22;5.30;;;1.60;;
76228;SDS011;65021;53.174;18.160;2023-02-22T02:18:51;5.00;;;1.60;;
76228;SDS011;65021;53.174;18.160;2023-02-22T02:37:47;5.50;;;2.40;;
76228;SDS011;65021;53.174;18.160;2023-02-22T02:45:35;4.30;;;2.10;;
76228;SDS011;65021;53.174;18.160;2023-02-22T02:48:10;9.10;;;2.20;;
76228;SDS011;65021;53.174;18.160;2023-02-22T02:50:41;0.70;;;0.40;;
76228;SDS011;65021;53.174;18.160;2023-02-22T02:53:12;3.30;;;1.20;;
76228;SDS011;65021;53.174;18.160;2023-02-22T02:55:42;7.80;;;2.70;;
76228;SDS011;65021;53.174;18.160;2023-02-22T02:58:10;8.60;;;3.70;;
76228;SDS011;65021;53.174;18.160;2023-02-22T03:00:43;3.30;;;1.20;;
76228;SDS011;65021;53.174;18.160;2023-02-22T03:03:21;12.10;;;4.40;;
76228;SDS011;65021;53.174;18.160;2023-02-22T03:08:42;5.20;;;2.20;;
76228;SDS011;65021;53.174;18.160;2023-02-22T03:11:17;6.20;;;2.40;;
76228;SDS011;65021;53.174;18.160;2023-02-22T03:13:52;9.70;;;3.30;;
76228;SDS011;65021;53.174;18.160;2023-02-22T03:16:31;11.10;;;3.20;;
76228;SDS011;65021;53.174;18.160;2023-02-22T03:21:46;12.10;;;3.70;;
76228;SDS011;65021;53.174;18.160;2023-02-22T03:24:30;9.80;;;3.90;;
76228;SDS011;65021;53.174;18.160;2023-02-22T03:27:05;6.90;;;2.60;;
76228;SDS011;65021;53.174;18.160;2023-02-22T03:29:38;9.70;;;3.70;;
76228;SDS011;65021;53.174;18.160;2023-02-22T03:32:10;6.20;;;2.60;;
76228;SDS011;65021;53.174;18.160;2023-02-22T03:34:42;8.10;;;2.50;;
76228;SDS011;65021;53.174;18.160;2023-02-22T03:37:17;8.60;;;2.60;;
76228;SDS011;65021;53.174;18.160;2023-02-22T03:39:50;4.90;;;1.60;;
76228;SDS011;65021;53.174;18.160;2023-02-22T03:42:20;9.50;;;3.80;;
76228;SDS011;65021;53.174;18.160;2023-02-22T03:44:52;12.90;;;2.90;;
76228;SDS011;65021;53.174;18.160;2023-02-22T03:47:31;10.40;;;3.30;;
76228;SDS011;65021;53.174;18.160;2023-02-22T03:50:08;7.80;;;2.50;;
76228;SDS011;65021;53.174;18.160;2023-02-22T03:52:40;9.30;;;2.70;;
76228;SDS011;65021;53.174;18.160;2023-02-22T03:55:09;8.00;;;2.70;;
76228;SDS011;65021;53.174;18.160;2023-02-22T03:57:38;9.50;;;3.10;;
76228;SDS011;65021;53.174;18.160;2023-02-22T04:00:09;7.30;;;2.70;;
76228;SDS011;65021;53.174;18.160;2023-02-22T04:02:37;4.50;;;2.30;;
76228;SDS011;65021;53.174;18.160;2023-02-22T04:05:04;10.10;;;3.10;;
76228;SDS011;65021;53.174;18.160;2023-02-22T04:07:31;3.50;;;1.60;;
76228;SDS011;65021;53.174;18.160;2023-02-22T04:10:15;7.60;;;2.90;;
76228;SDS011;65021;53.174;18.160;2023-02-22T04:12:42;7.50;;;2.90;;
76228;SDS011;65021;53.174;18.160;2023-02-22T04:15:11;6.40;;;3.10;;
76228;SDS011;65021;53.174;18.160;2023-02-22T04:17:40;7.40;;;3.00;;
76228;SDS011;65021;53.174;18.160;2023-02-22T04:20:08;7.80;;;3.20;;
76228;SDS011;65021;53.174;18.160;2023-02-22T04:22:35;6.90;;;3.30;;
76228;SDS011;65021;53.174;18.160;2023-02-22T04:25:01;9.00;;;3.00;;
76228;SDS011;65021;53.174;18.160;2023-02-22T04:27:28;7.20;;;3.20;;
76228;SDS011;65021;53.174;18.160;2023-02-22T04:29:54;8.50;;;3.30;;
76228;SDS011;65021;53.174;18.160;2023-02-22T04:32:21;9.40;;;2.70;;
76228;SDS011;65021;53.174;18.160;2023-02-22T04:34:47;6.40;;;2.80;;
76228;SDS011;65021;53.174;18.160;2023-02-22T04:37:14;7.00;;;2.60;;
76228;SDS011;65021;53.174;18.160;2023-02-22T04:39:40;7.70;;;2.20;;
76228;SDS011;65021;53.174;18.160;2023-02-22T04:42:07;6.70;;;2.60;;
76228;SDS011;65021;53.174;18.160;2023-02-22T04:44:34;8.10;;;2.60;;
76228;SDS011;65021;53.174;18.160;2023-02-22T04:47:00;5.60;;;2.50;;
76228;SDS011;65021;53.174;18.160;2023-02-22T04:49:27;6.90;;;1.60;;
76228;SDS011;65021;53.174;18.160;2023-02-22T04:51:54;4.20;;;1.10;;
76228;SDS011;65021;53.174;18.160;2023-02-22T04:54:20;4.90;;;1.70;;
76228;SDS011;65021;53.174;18.160;2023-02-22T04:56:47;9.50;;;3.00;;
76228;SDS011;65021;53.174;18.160;2023-02-22T04:59:13;6.70;;;2.20;;
76228;SDS011;65021;53.174;18.160;2023-02-22T05:01:40;7.10;;;2.60;;
76228;SDS011;65021;53.174;18.160;2023-02-22T05:04:07;2.60;;;1.00;;
76228;SDS011;65021;53.174;18.160;2023-02-22T05:06:33;6.60;;;2.10;;
76228;SDS011;65021;53.174;18.160;2023-02-22T05:09:00;9.90;;;3.10;;
76228;SDS011;65021;53.174;18.160;2023-02-22T05:11:27;6.40;;;2.70;;
76228;SDS011;65021;53.174;18.160;2023-02-22T05:13:54;8.70;;;2.90;;
76228;SDS011;65021;53.174;18.160;2023-02-22T05:16:20;7.20;;;2.50;;
76228;SDS011;65021;53.174;18.160;2023-02-22T05:18:47;7.20;;;2.70;;
76228;SDS011;65021;53.174;18.160;2023-02-22T05:21:14;4.40;;;1.60;;
76228;SDS011;65021;53.174;18.160;2023-02-22T05:23:40;5.70;;;2.50;;
76228;SDS011;65021;53.174;18.160;2023-02-22T05:26:07;8.10;;;3.10;;
76228;SDS011;65021;53.174;18.160;2023-02-22T05:28:33;9.40;;;2.50;;
76228;SDS011;65021;53.174;18.160;2023-02-22T05:31:00;7.20;;;2.70;;
76228;SDS011;65021;53.174;18.160;2023-02-22T05:33:26;7.80;;;2.50;;
76228;SDS011;65021;53.174;18.160;2023-02-22T05:35:53;9.90;;;2.50;;
76228;SDS011;65021;53.174;18.160;2023-02-22T05:38:21;7.00;;;2.80;;
76228;SDS011;65021;53.174;18.160;2023-02-22T05:40:48;7.80;;;2.40;;
76228;SDS011;65021;53.174;18.160;2023-02-22T05:43:15;5.60;;;2.60;;
76228;SDS011;65021;53.174;18.160;2023-02-22T05:45:41;6.70;;;2.20;;
76228;SDS011;65021;53.174;18.160;2023-02-22T05:48:08;6.90;;;2.30;;
76228;SDS011;65021;53.174;18.160;2023-02-22T05:50:35;5.40;;;2.30;;
76228;SDS011;65021;53.174;18.160;2023-02-22T05:53:01;5.20;;;2.20;;
76228;SDS011;65021;53.174;18.160;2023-02-22T05:55:28;5.20;;;2.40;;
76228;SDS011;65021;53.174;18.160;2023-02-22T05:57:54;4.60;;;2.10;;
76228;SDS011;65021;53.174;18.160;2023-02-22T06:00:28;8.30;;;2.70;;
76228;SDS011;65021;53.174;18.160;2023-02-22T06:02:56;8.60;;;2.70;;
76228;SDS011;65021;53.174;18.160;2023-02-22T06:05:25;5.50;;;2.10;;
76228;SDS011;65021;53.174;18.160;2023-02-22T06:07:53;6.70;;;3.00;;
76228;SDS011;65021;53.174;18.160;2023-02-22T06:10:20;4.50;;;1.80;;
76228;SDS011;65021;53.174;18.160;2023-02-22T06:12:47;5.40;;;2.00;;
76228;SDS011;65021;53.174;18.160;2023-02-22T06:15:15;6.50;;;2.10;;
76228;SDS011;65021;53.174;18.160;2023-02-22T06:17:43;4.90;;;2.10;;
76228;SDS011;65021;53.174;18.160;2023-02-22T06:20:11;6.50;;;2.10;;
76228;SDS011;65021;53.174;18.160;2023-02-22T06:22:40;6.60;;;2.80;;
76228;SDS011;65021;53.174;18.160;2023-02-22T06:25:07;9.10;;;2.20;;
76228;SDS011;65021;53.174;18.160;2023-02-22T06:27:34;5.70;;;2.30;;
76228;SDS011;65021;53.174;18.160;2023-02-22T06:30:01;5.10;;;1.90;;
76228;SDS011;65021;53.174;18.160;2023-02-22T06:32:28;6.10;;;2.20;;
76228;SDS011;65021;53.174;18.160;2023-02-22T06:34:54;6.10;;;2.00;;
76228;SDS011;65021;53.174;18.160;2023-02-22T06:37:21;4.50;;;1.90;;
76228;SDS011;65021;53.174;18.160;2023-02-22T06:39:47;5.00;;;2.00;;
76228;SDS011;65021;53.174;18.160;2023-02-22T06:42:14;5.30;;;2.00;;
76228;SDS011;65021;53.174;18.160;2023-02-22T06:44:40;6.10;;;2.30;;
76228;SDS011;65021;53.174;18.160;2023-02-22T06:47:07;5.00;;;2.10;;
76228;SDS011;65021;53.174;18.160;2023-02-22T06:49:33;10.40;;;3.20;;
76228;SDS011;65021;53.174;18.160;2023-02-22T06:52:00;7.50;;;3.10;;
76228;SDS011;65021;53.174;18.160;2023-02-22T06:56:56;8.20;;;2.50;;
76228;SDS011;65021;53.174;18.160;2023-02-22T06:59:23;7.70;;;2.50;;
76228;SDS011;65021;53.174;18.160;2023-02-22T07:01:49;9.00;;;2.90;;
76228;SDS011;65021;53.174;18.160;2023-02-22T07:04:16;7.80;;;3.30;;
76228;SDS011;65021;53.174;18.160;2023-02-22T07:06:46;8.90;;;3.70;;
76228;SDS011;65021;53.174;18.160;2023-02-22T07:09:14;7.60;;;2.90;;
76228;SDS011;65021;53.174;18.160;2023-02-22T07:11:42;10.50;;;3.70;;
76228;SDS011;65021;53.174;18.160;2023-02-22T07:14:09;8.20;;;3.00;;
76228;SDS011;65021;53.174;18.160;2023-02-22T07:16:36;7.10;;;3.50;;
76228;SDS011;65021;53.174;18.160;2023-02-22T07:19:02;7.60;;;3.30;;
76228;SDS011;65021;53.174;18.160;2023-02-22T07:21:29;8.50;;;3.10;;
76228;SDS011;65021;53.174;18.160;2023-02-22T07:23:56;7.80;;;2.90;;
76228;SDS011;65021;53.174;18.160;2023-02-22T07:26:24;6.60;;;3.10;;
76228;SDS011;65021;53.174;18.160;2023-02-22T07:28:52;9.10;;;3.60;;
76228;SDS011;65021;53.174;18.160;2023-02-22T07:31:18;8.20;;;3.20;;
76228;SDS011;65021;53.174;18.160;2023-02-22T07:33:45;6.90;;;2.80;;
76228;SDS011;65021;53.174;18.160;2023-02-22T07:36:13;5.80;;;2.00;;
76228;SDS011;65021;53.174;18.160;2023-02-22T07:38:45;7.50;;;3.30;;
76228;SDS011;65021;53.174;18.160;2023-02-22T07:43:39;6.30;;;2.80;;
76228;SDS011;65021;53.174;18.160;2023-02-22T07:46:05;9.00;;;3.60;;
76228;SDS011;65021;53.174;18.160;2023-02-22T07:48:32;8.00;;;3.00;;
76228;SDS011;65021;53.174;18.160;2023-02-22T07:50:58;7.20;;;3.10;;
76228;SDS011;65021;53.174;18.160;2023-02-22T07:53:26;7.40;;;3.00;;
76228;SDS011;65021;53.174;18.160;2023-02-22T07:55:56;7.10;;;2.50;;
76228;SDS011;65021;53.174;18.160;2023-02-22T07:58:24;4.90;;;1.80;;
76228;SDS011;65021;53.174;18.160;2023-02-22T08:00:53;5.70;;;2.20;;
76228;SDS011;65021;53.174;18.160;2023-02-22T08:03:21;7.30;;;3.40;;
76228;SDS011;65021;53.174;18.160;2023-02-22T08:05:50;8.50;;;2.90;;
76228;SDS011;65021;53.174;18.160;2023-02-22T08:10:45;6.40;;;2.70;;
76228;SDS011;65021;53.174;18.160;2023-02-22T08:13:12;7.30;;;2.90;;
76228;SDS011;65021;53.174;18.160;2023-02-22T08:15:39;10.20;;;3.50;;
76228;SDS011;65021;53.174;18.160;2023-02-22T08:18:08;7.00;;;2.80;;
76228;SDS011;65021;53.174;18.160;2023-02-22T08:20:39;5.50;;;2.30;;
76228;SDS011;65021;53.174;18.160;2023-02-22T08:23:07;6.30;;;2.80;;
76228;SDS011;65021;53.174;18.160;2023-02-22T08:25:35;7.20;;;2.70;;
76228;SDS011;65021;53.174;18.160;2023-02-22T08:28:03;7.50;;;2.70;;
76228;SDS011;65021;53.174;18.160;2023-02-22T08:30:32;6.80;;;2.70;;
76228;SDS011;65021;53.174;18.160;2023-02-22T08:33:00;7.40;;;2.90;;
76228;SDS011;65021;53.174;18.160;2023-02-22T08:35:30;7.90;;;3.10;;
76228;SDS011;65021;53.174;18.160;2023-02-22T08:37:59;8.00;;;2.60;;
76228;SDS011;65021;53.174;18.160;2023-02-22T08:40:30;6.70;;;2.10;;
76228;SDS011;65021;53.174;18.160;2023-02-22T08:42:59;5.00;;;1.90;;
76228;SDS011;65021;53.174;18.160;2023-02-22T08:45:29;9.10;;;3.10;;
76228;SDS011;65021;53.174;18.160;2023-02-22T08:47:56;7.80;;;2.90;;
76228;SDS011;65021;53.174;18.160;2023-02-22T08:50:25;6.30;;;2.50;;
76228;SDS011;65021;53.174;18.160;2023-02-22T08:52:55;4.00;;;1.10;;
76228;SDS011;65021;53.174;18.160;2023-02-22T08:55:25;3.70;;;1.40;;
76228;SDS011;65021;53.174;18.160;2023-02-22T08:57:53;4.80;;;1.20;;
76228;SDS011;65021;53.174;18.160;2023-02-22T09:00:20;5.90;;;1.30;;
76228;SDS011;65021;53.174;18.160;2023-02-22T09:02:50;4.70;;;1.50;;
76228;SDS011;65021;53.174;18.160;2023-02-22T09:05:17;5.60;;;2.80;;
76228;SDS011;65021;53.174;18.160;2023-02-22T09:07:44;3.30;;;1.40;;
76228;SDS011;65021;53.174;18.160;2023-02-22T09:10:19;5.50;;;2.00;;
76228;SDS011;65021;53.174;18.160;2023-02-22T09:12:50;3.90;;;1.50;;
76228;SDS011;65021;53.174;18.160;2023-02-22T09:15:17;4.50;;;1.80;;
76228;SDS011;65021;53.174;18.160;2023-02-22T09:17:44;5.80;;;1.90;;
76228;SDS011;65021;53.174;18.160;2023-02-22T09:20:11;4.70;;;1.70;;
76228;SDS011;65021;53.174;18.160;2023-02-22T09:22:38;5.20;;;1.70;;
76228;SDS011;65021;53.174;18.160;2023-02-22T09:25:05;2.10;;;0.80;;
76228;SDS011;65021;53.174;18.160;2023-02-22T09:27:32;3.60;;;0.90;;
76228;SDS011;65021;53.174;18.160;2023-02-22T09:29:59;3.50;;;1.30;;
76228;SDS011;65021;53.174;18.160;2023-02-22T09:32:25;3.00;;;1.20;;
76228;SDS011;65021;53.174;18.160;2023-02-22T09:34:53;3.80;;;1.50;;
76228;SDS011;65021;53.174;18.160;2023-02-22T09:37:20;7.90;;;1.70;;
76228;SDS011;65021;53.174;18.160;2023-02-22T09:39:46;2.80;;;1.00;;
76228;SDS011;65021;53.174;18.160;2023-02-22T09:42:29;3.40;;;1.10;;
76228;SDS011;65021;53.174;18.160;2023-02-22T09:45:09;3.60;;;1.10;;
76228;SDS011;65021;53.174;18.160;2023-02-22T09:47:46;2.20;;;0.90;;
76228;SDS011;65021;53.174;18.160;2023-02-22T09:50:38;3.10;;;1.00;;
76228;SDS011;65021;53.174;18.160;2023-02-22T09:56:06;3.00;;;1.00;;
76228;SDS011;65021;53.174;18.160;2023-02-22T10:01:18;3.60;;;1.10;;
76228;SDS011;65021;53.174;18.160;2023-02-22T10:04:06;3.00;;;1.20;;
76228;SDS011;65021;53.174;18.160;2023-02-22T10:06:35;2.70;;;0.80;;
76228;SDS011;65021;53.174;18.160;2023-02-22T10:09:04;2.30;;;0.90;;
76228;SDS011;65021;53.174;18.160;2023-02-22T10:20:21;2.80;;;0.90;;
76228;SDS011;65021;53.174;18.160;2023-02-22T10:25:50;3.40;;;1.30;;
76228;SDS011;65021;53.174;18.160;2023-02-22T10:28:23;1.60;;;0.70;;
76228;SDS011;65021;53.174;18.160;2023-02-22T10:30:56;4.30;;;1.30;;
76228;SDS011;65021;53.174;18.160;2023-02-22T10:33:31;3.50;;;1.10;;
76228;SDS011;65021;53.174;18.160;2023-02-22T10:36:02;3.90;;;1.70;;
76228;SDS011;65021;53.174;18.160;2023-02-22T10:38:29;5.30;;;1.50;;
76228;SDS011;65021;53.174;18.160;2023-02-22T10:40:59;4.50;;;1.30;;
76228;SDS011;65021;53.174;18.160;2023-02-22T10:46:02;3.50;;;1.60;;
76228;SDS011;65021;53.174;18.160;2023-02-22T10:48:33;4.20;;;1.70;;
76228;SDS011;65021;53.174;18.160;2023-02-22T10:51:04;3.20;;;1.20;;
76228;SDS011;65021;53.174;18.160;2023-02-22T10:53:34;2.50;;;1.00;;
76228;SDS011;65021;53.174;18.160;2023-02-22T10:58:41;3.00;;;1.20;;
76228;SDS011;65021;53.174;18.160;2023-02-22T11:01:33;4.40;;;1.60;;
76228;SDS011;65021;53.174;18.160;2023-02-22T11:04:05;3.70;;;1.40;;
76228;SDS011;65021;53.174;18.160;2023-02-22T11:06:34;9.10;;;2.60;;
76228;SDS011;65021;53.174;18.160;2023-02-22T11:09:05;3.80;;;1.60;;
76228;SDS011;65021;53.174;18.160;2023-02-22T11:11:35;3.60;;;1.10;;
76228;SDS011;65021;53.174;18.160;2023-02-22T11:14:05;3.10;;;1.00;;
76228;SDS011;65021;53.174;18.160;2023-02-22T11:19:02;4.80;;;1.30;;
76228;SDS011;65021;53.174;18.160;2023-02-22T11:21:37;3.90;;;1.20;;
76228;SDS011;65021;53.174;18.160;2023-02-22T11:24:06;4.90;;;1.30;;
76228;SDS011;65021;53.174;18.160;2023-02-22T11:26:55;3.20;;;1.00;;
76228;SDS011;65021;53.174;18.160;2023-02-22T11:29:29;3.50;;;1.30;;
76228;SDS011;65021;53.174;18.160;2023-02-22T11:32:14;3.20;;;1.40;;
76228;SDS011;65021;53.174;18.160;2023-02-22T11:34:48;2.30;;;0.90;;
76228;SDS011;65021;53.174;18.160;2023-02-22T11:39:48;8.70;;;2.30;;
76228;SDS011;65021;53.174;18.160;2023-02-22T11:42:48;3.40;;;1.20;;
76228;SDS011;65021;53.174;18.160;2023-02-22T11:45:30;4.60;;;1.40;;
76228;SDS011;65021;53.174;18.160;2023-02-22T11:47:58;3.80;;;1.40;;
76228;SDS011;65021;53.174;18.160;2023-02-22T11:50:29;4.20;;;1.80;;
76228;SDS011;65021;53.174;18.160;2023-02-22T11:53:06;3.30;;;1.10;;
76228;SDS011;65021;53.174;18.160;2023-02-22T11:55:52;5.50;;;1.70;;
76228;SDS011;65021;53.174;18.160;2023-02-22T11:59:00;3.50;;;1.50;;
76228;SDS011;65021;53.174;18.160;2023-02-22T12:01:36;3.60;;;1.50;;
76228;SDS011;65021;53.174;18.160;2023-02-22T12:15:33;3.30;;;1.40;;
76228;SDS011;65021;53.174;18.160;2023-02-22T12:18:13;2.20;;;0.70;;
76228;SDS011;65021;53.174;18.160;2023-02-22T12:23:24;5.50;;;2.10;;
76228;SDS011;65021;53.174;18.160;2023-02-22T12:26:06;2.40;;;0.80;;
76228;SDS011;65021;53.174;18.160;2023-02-22T12:28:46;3.60;;;0.90;;
76228;SDS011;65021;53.174;18.160;2023-02-22T12:33:50;4.60;;;1.40;;
76228;SDS011;65021;53.174;18.160;2023-02-22T12:36:29;2.30;;;0.90;;
76228;SDS011;65021;53.174;18.160;2023-02-22T12:39:08;3.60;;;1.50;;
76228;SDS011;65021;53.174;18.160;2023-02-22T12:41:58;2.80;;;1.00;;
76228;SDS011;65021;53.174;18.160;2023-02-22T12:44:31;3.30;;;1.20;;
76228;SDS011;65021;53.174;18.160;2023-02-22T12:47:02;4.60;;;1.80;;
76228;SDS011;65021;53.174;18.160;2023-02-22T12:49:39;4.00;;;1.50;;
76228;SDS011;65021;53.174;18.160;2023-02-22T12:52:31;3.50;;;1.20;;
76228;SDS011;65021;53.174;18.160;2023-02-22T12:55:23;4.30;;;1.50;;
76228;SDS011;65021;53.174;18.160;2023-02-22T13:00:47;4.60;;;1.90;;
76228;SDS011;65021;53.174;18.160;2023-02-22T13:05:55;8.80;;;1.70;;
76228;SDS011;65021;53.174;18.160;2023-02-22T13:16:57;4.60;;;1.60;;
76228;SDS011;65021;53.174;18.160;2023-02-22T13:22:26;3.70;;;1.60;;
76228;SDS011;65021;53.174;18.160;2023-02-22T13:25:05;3.80;;;1.10;;
76228;SDS011;65021;53.174;18.160;2023-02-22T13:27:42;4.60;;;1.60;;
76228;SDS011;65021;53.174;18.160;2023-02-22T13:30:19;5.70;;;2.30;;
76228;SDS011;65021;53.174;18.160;2023-02-22T13:51:51;3.60;;;1.90;;
76228;SDS011;65021;53.174;18.160;2023-02-22T13:57:19;6.20;;;2.30;;
76228;SDS011;65021;53.174;18.160;2023-02-22T14:08:37;4.70;;;2.00;;
76228;SDS011;65021;53.174;18.160;2023-02-22T14:10:57;6.90;;;2.40;;
76228;SDS011;65021;53.174;18.160;2023-02-22T14:13:27;4.90;;;1.50;;
76228;SDS011;65021;53.174;18.160;2023-02-22T14:23:40;4.90;;;2.20;;
76228;SDS011;65021;53.174;18.160;2023-02-22T14:28:50;4.40;;;2.00;;
76228;SDS011;65021;53.174;18.160;2023-02-22T14:34:19;6.30;;;2.10;;
76228;SDS011;65021;53.174;18.160;2023-02-22T14:39:29;5.00;;;1.90;;
76228;SDS011;65021;53.174;18.160;2023-02-22T14:47:27;4.90;;;2.10;;
76228;SDS011;65021;53.174;18.160;2023-02-22T14:50:04;6.60;;;2.20;;
76228;SDS011;65021;53.174;18.160;2023-02-22T14:52:37;3.00;;;1.10;;
76228;SDS011;65021;53.174;18.160;2023-02-22T14:58:19;5.90;;;2.00;;
76228;SDS011;65021;53.174;18.160;2023-02-22T15:00:49;7.20;;;2.60;;
76228;SDS011;65021;53.174;18.160;2023-02-22T15:03:31;4.50;;;1.70;;
76228;SDS011;65021;53.174;18.160;2023-02-22T15:06:18;5.50;;;2.00;;
76228;SDS011;65021;53.174;18.160;2023-02-22T15:08:47;5.40;;;2.40;;
76228;SDS011;65021;53.174;18.160;2023-02-22T15:11:29;4.80;;;1.60;;
76228;SDS011;65021;53.174;18.160;2023-02-22T15:14:00;5.90;;;2.60;;
76228;SDS011;65021;53.174;18.160;2023-02-22T15:16:46;6.10;;;2.00;;
76228;SDS011;65021;53.174;18.160;2023-02-22T15:19:19;5.60;;;2.30;;
76228;SDS011;65021;53.174;18.160;2023-02-22T15:21:53;6.60;;;2.10;;
76228;SDS011;65021;53.174;18.160;2023-02-22T15:24:27;5.50;;;1.60;;
76228;SDS011;65021;53.174;18.160;2023-02-22T15:27:02;4.50;;;1.90;;
76228;SDS011;65021;53.174;18.160;2023-02-22T15:32:01;7.30;;;2.90;;
76228;SDS011;65021;53.174;18.160;2023-02-22T15:34:29;4.50;;;1.10;;
76228;SDS011;65021;53.174;18.160;2023-02-22T15:36:58;5.50;;;2.10;;
76228;SDS011;65021;53.174;18.160;2023-02-22T15:39:39;5.60;;;1.80;;
76228;SDS011;65021;53.174;18.160;2023-02-22T15:42:10;5.10;;;2.00;;
76228;SDS011;65021;53.174;18.160;2023-02-22T15:44:46;6.90;;;1.90;;
76228;SDS011;65021;53.174;18.160;2023-02-22T15:47:20;5.60;;;1.90;;
76228;SDS011;65021;53.174;18.160;2023-02-22T15:50:32;7.40;;;2.80;;
76228;SDS011;65021;53.174;18.160;2023-02-22T15:57:55;10.60;;;3.20;;
76228;SDS011;65021;53.174;18.160;2023-02-22T16:00:27;9.20;;;3.50;;
76228;SDS011;65021;53.174;18.160;2023-02-22T16:03:02;7.20;;;3.00;;
76228;SDS011;65021;53.174;18.160;2023-02-22T16:06:07;6.00;;;2.00;;
76228;SDS011;65021;53.174;18.160;2023-02-22T16:08:25;6.10;;;1.80;;
76228;SDS011;65021;53.174;18.160;2023-02-22T16:11:04;7.20;;;2.10;;
76228;SDS011;65021;53.174;18.160;2023-02-22T16:13:39;6.70;;;2.60;;
76228;SDS011;65021;53.174;18.160;2023-02-22T16:18:43;5.00;;;1.70;;
76228;SDS011;65021;53.174;18.160;2023-02-22T16:21:13;6.60;;;2.80;;
76228;SDS011;65021;53.174;18.160;2023-02-22T16:23:43;4.70;;;1.60;;
76228;SDS011;65021;53.174;18.160;2023-02-22T16:26:20;9.00;;;2.70;;
76228;SDS011;65021;53.174;18.160;2023-02-22T16:29:00;7.10;;;2.00;;
76228;SDS011;65021;53.174;18.160;2023-02-22T16:31:30;5.30;;;2.30;;
76228;SDS011;65021;53.174;18.160;2023-02-22T16:34:02;6.70;;;2.60;;
76228;SDS011;65021;53.174;18.160;2023-02-22T16:36:40;9.80;;;3.40;;
76228;SDS011;65021;53.174;18.160;2023-02-22T16:41:44;11.40;;;3.50;;
76228;SDS011;65021;53.174;18.160;2023-02-22T16:44:11;11.70;;;3.60;;
76228;SDS011;65021;53.174;18.160;2023-02-22T16:46:39;10.20;;;4.40;;
76228;SDS011;65021;53.174;18.160;2023-02-22T16:49:10;7.20;;;3.10;;
76228;SDS011;65021;53.174;18.160;2023-02-22T16:51:39;6.80;;;2.60;;
76228;SDS011;65021;53.174;18.160;2023-02-22T16:54:11;6.50;;;2.60;;
76228;SDS011;65021;53.174;18.160;2023-02-22T16:56:39;5.80;;;2.10;;
76228;SDS011;65021;53.174;18.160;2023-02-22T16:59:08;5.50;;;2.10;;
76228;SDS011;65021;53.174;18.160;2023-02-22T17:01:39;8.20;;;3.00;;
76228;SDS011;65021;53.174;18.160;2023-02-22T17:04:16;6.80;;;2.30;;
76228;SDS011;65021;53.174;18.160;2023-02-22T17:06:45;10.80;;;3.60;;
76228;SDS011;65021;53.174;18.160;2023-02-22T17:09:13;8.80;;;3.40;;
76228;SDS011;65021;53.174;18.160;2023-02-22T17:11:40;9.20;;;3.80;;
76228;SDS011;65021;53.174;18.160;2023-02-22T17:14:08;7.80;;;3.00;;
76228;SDS011;65021;53.174;18.160;2023-02-22T17:16:37;6.30;;;2.00;;
76228;SDS011;65021;53.174;18.160;2023-02-22T17:19:07;6.80;;;2.30;;
76228;SDS011;65021;53.174;18.160;2023-02-22T17:21:40;5.80;;;1.80;;
76228;SDS011;65021;53.174;18.160;2023-02-22T17:24:08;8.90;;;2.90;;
76228;SDS011;65021;53.174;18.160;2023-02-22T17:26:37;9.00;;;3.60;;
76228;SDS011;65021;53.174;18.160;2023-02-22T17:29:04;10.30;;;3.60;;
76228;SDS011;65021;53.174;18.160;2023-02-22T17:31:31;10.10;;;2.80;;
76228;SDS011;65021;53.174;18.160;2023-02-22T17:34:00;7.30;;;2.60;;
76228;SDS011;65021;53.174;18.160;2023-02-22T17:36:29;6.70;;;3.20;;
76228;SDS011;65021;53.174;18.160;2023-02-22T17:38:58;6.10;;;2.20;;
76228;SDS011;65021;53.174;18.160;2023-02-22T17:41:25;9.20;;;4.40;;
76228;SDS011;65021;53.174;18.160;2023-02-22T17:43:52;6.10;;;2.20;;